Time;durP1;ratioP1;P1;durP2;ratioP2;P2;SDS_P1;SDS_P2;PMS_P1;PMS_P2;Temp;Humidity;BMP_temperature;BMP_pressure;BME280_temperature;BME280_humidity;BME280_pressure;Samples;Min_cycle;Max_cycle;Signal;HPM_P1;HPM_P2
2024/01/29 00:00:04;;;;;;;12.93;4.68;;;6.40;1.00;;;;;;5053173;28;20021;-77
2024/01/29 00:02:31;;;;;;;16.65;4.97;;;6.50;1.00;;;;;;5052777;28;20013;-74
2024/01/29 00:04:57;;;;;;;19.92;5.13;;;6.40;1.00;;;;;;5052678;28;20031;-75
2024/01/29 00:07:23;;;;;;;14.63;5.30;;;6.50;99.90;;;;;;5051723;28;20400;-73
2024/01/29 00:09:48;;;;;;;15.93;5.15;;;6.50;99.90;;;;;;5052797;28;20108;-78
2024/01/29 00:12:14;;;;;;;11.52;4.60;;;6.40;99.90;;;;;;5053050;28;20375;-73
2024/01/29 00:14:39;;;;;;;16.23;4.63;;;6.50;99.90;;;;;;5052532;28;20032;-74
2024/01/29 00:17:05;;;;;;;15.02;4.90;;;6.50;99.90;;;;;;5051855;28;20033;-74
2024/01/29 00:19:31;;;;;;;15.10;4.57;;;6.50;99.90;;;;;;5052388;28;20029;-75
2024/01/29 00:21:56;;;;;;;11.20;4.30;;;6.50;99.90;;;;;;5052108;28;20025;-74
2024/01/29 00:24:22;;;;;;;12.70;5.35;;;6.50;99.90;;;;;;5052455;28;20033;-75
2024/01/29 00:26:49;;;;;;;10.40;4.35;;;6.50;99.90;;;;;;5050397;28;20025;-75
2024/01/29 00:29:15;;;;;;;18.90;4.90;;;6.60;99.90;;;;;;5052186;28;20396;-74
2024/01/29 00:31:41;;;;;;;12.57;4.25;;;6.50;99.90;;;;;;5052290;28;20021;-78
2024/01/29 00:34:07;;;;;;;15.00;4.22;;;6.60;99.90;;;;;;5051941;28;20494;-74
2024/01/29 00:36:33;;;;;;;15.98;4.50;;;6.60;99.90;;;;;;5050965;28;20028;-74
2024/01/29 00:38:58;;;;;;;13.52;4.55;;;6.50;99.90;;;;;;5052037;28;20115;-75
2024/01/29 00:41:24;;;;;;;15.30;4.28;;;6.60;99.90;;;;;;5052090;28;20099;-75
2024/01/29 00:43:50;;;;;;;13.63;4.18;;;6.60;99.90;;;;;;5051808;28;20048;-75
2024/01/29 00:46:15;;;;;;;14.43;4.97;;;6.60;99.90;;;;;;5051380;28;20032;-74
2024/01/29 00:48:42;;;;;;;14.70;4.43;;;6.60;99.90;;;;;;5050988;28;20021;-74
2024/01/29 00:51:07;;;;;;;16.80;4.63;;;6.50;99.90;;;;;;5051802;28;20029;-75
2024/01/29 00:53:33;;;;;;;13.25;4.18;;;6.60;99.90;;;;;;5051969;28;20029;-77
2024/01/29 00:55:58;;;;;;;12.52;3.92;;;6.60;99.90;;;;;;5052602;28;20668;-76
2024/01/29 00:58:24;;;;;;;10.90;4.03;;;6.50;99.90;;;;;;5051409;28;20396;-77
2024/01/29 01:00:50;;;;;;;12.40;4.13;;;6.50;99.90;;;;;;5049971;28;20037;-77
2024/01/29 01:03:16;;;;;;;12.40;4.03;;;6.70;99.90;;;;;;5052254;28;20511;-78
2024/01/29 01:05:41;;;;;;;8.93;3.88;;;6.60;99.90;;;;;;5052614;28;20017;-75
2024/01/29 01:08:07;;;;;;;10.27;4.05;;;6.60;31.40;;;;;;5052253;28;20033;-74
2024/01/29 01:10:32;;;;;;;8.65;3.83;;;6.60;45.30;;;;;;5052455;28;20025;-74
2024/01/29 01:12:59;;;;;;;9.52;3.80;;;6.60;1.00;;;;;;5052591;28;20021;-73
2024/01/29 01:15:25;;;;;;;13.30;4.25;;;6.70;1.00;;;;;;5052462;28;20620;-74
2024/01/29 01:17:50;;;;;;;13.15;3.65;;;6.60;1.00;;;;;;5051951;28;20025;-73
2024/01/29 01:20:16;;;;;;;13.52;4.10;;;6.70;1.00;;;;;;5052239;28;20488;-74
2024/01/29 01:22:41;;;;;;;15.18;4.45;;;6.50;1.00;;;;;;5052183;28;20476;-74
2024/01/29 01:25:07;;;;;;;10.77;3.95;;;6.60;1.00;;;;;;5052129;28;20025;-74
2024/01/29 01:27:33;;;;;;;16.45;5.00;;;6.60;1.00;;;;;;5051869;28;20017;-74
2024/01/29 01:29:59;;;;;;;8.95;3.65;;;6.60;1.00;;;;;;5052303;28;20021;-76
2024/01/29 01:32:25;;;;;;;8.45;3.75;;;6.60;1.00;;;;;;5052233;28;20308;-77
2024/01/29 01:34:50;;;;;;;11.93;4.25;;;6.60;1.00;;;;;;5052144;28;20033;-76
2024/01/29 01:37:16;;;;;;;12.38;4.00;;;6.70;1.00;;;;;;5051720;28;20025;-73
2024/01/29 01:39:42;;;;;;;13.18;3.78;;;6.60;8.00;;;;;;5051667;28;20028;-73
2024/01/29 01:42:08;;;;;;;10.52;3.92;;;6.60;17.50;;;;;;5051939;28;20062;-74
2024/01/29 01:44:34;;;;;;;8.98;4.10;;;6.60;99.90;;;;;;5051758;28;20028;-75
2024/01/29 01:47:00;;;;;;;9.30;3.70;;;6.50;99.90;;;;;;5051201;28;20032;-75
2024/01/29 01:49:27;;;;;;;9.40;4.30;;;6.40;99.90;;;;;;5051784;28;20025;-73
2024/01/29 01:51:53;;;;;;;9.82;3.92;;;6.40;99.90;;;;;;5051937;28;20025;-73
2024/01/29 01:54:19;;;;;;;16.58;4.82;;;6.30;99.90;;;;;;5052070;28;20082;-78
2024/01/29 01:56:47;;;;;;;12.15;4.07;;;6.30;99.90;;;;;;5052368;28;20051;-78
2024/01/29 01:59:13;;;;;;;11.40;4.28;;;6.30;99.90;;;;;;5052280;28;20033;-77
2024/01/29 02:01:39;;;;;;;11.95;4.20;;;6.20;1.00;;;;;;5052480;28;20029;-78
2024/01/29 02:04:05;;;;;;;12.95;4.38;;;6.20;1.00;;;;;;5051536;28;20464;-78
2024/01/29 02:06:31;;;;;;;14.02;4.10;;;6.10;1.00;;;;;;5052086;28;20399;-77
2024/01/29 02:08:56;;;;;;;10.32;3.90;;;6.10;1.00;;;;;;5052233;28;20029;-75
2024/01/29 02:11:22;;;;;;;11.50;4.65;;;6.10;1.00;;;;;;5052428;28;20060;-78
2024/01/29 02:13:48;;;;;;;11.20;4.60;;;6.10;1.00;;;;;;5052138;28;20472;-76
2024/01/29 02:16:14;;;;;;;13.75;4.28;;;6.10;1.00;;;;;;5051811;28;20036;-75
2024/01/29 02:18:39;;;;;;;13.02;4.45;;;6.00;1.00;;;;;;5051716;28;20127;-77
2024/01/29 02:21:05;;;;;;;11.63;4.57;;;6.00;1.00;;;;;;5051871;28;20028;-78
2024/01/29 02:23:30;;;;;;;12.18;4.50;;;5.90;1.00;;;;;;5051562;28;20028;-75
2024/01/29 02:25:56;;;;;;;10.05;4.00;;;5.90;1.00;;;;;;5051494;28;20029;-76
2024/01/29 02:28:23;;;;;;;11.35;4.57;;;6.00;1.00;;;;;;5051384;28;20431;-75
2024/01/29 02:30:49;;;;;;;11.65;4.55;;;5.80;1.00;;;;;;5051800;28;20021;-73
2024/01/29 02:33:15;;;;;;;15.25;5.15;;;5.80;1.00;;;;;;5051621;28;20401;-74
2024/01/29 02:35:40;;;;;;;10.75;5.03;;;5.80;1.00;;;;;;5051365;28;20021;-74
2024/01/29 02:38:06;;;;;;;10.88;4.53;;;5.80;1.00;;;;;;5050915;28;20036;-74
2024/01/29 02:40:32;;;;;;;11.90;4.60;;;5.70;1.00;;;;;;5051312;28;20036;-74
2024/01/29 02:42:57;;;;;;;11.57;4.55;;;5.70;1.00;;;;;;5051195;28;20085;-74
2024/01/29 02:45:23;;;;;;;11.55;4.10;;;5.70;1.00;;;;;;5051760;28;20029;-75
2024/01/29 02:47:48;;;;;;;13.93;4.75;;;5.70;1.00;;;;;;5051310;28;20456;-76
2024/01/29 02:50:14;;;;;;;14.70;4.68;;;5.70;1.00;;;;;;5051619;28;20036;-76
2024/01/29 02:52:40;;;;;;;10.98;4.38;;;5.60;1.00;;;;;;5051527;28;20021;-77
2024/01/29 02:55:05;;;;;;;13.20;4.68;;;5.60;1.00;;;;;;5051420;28;20404;-76
2024/01/29 02:57:31;;;;;;;8.40;4.65;;;5.50;1.00;;;;;;5051249;28;20021;-76
2024/01/29 02:59:56;;;;;;;16.23;5.35;;;5.40;1.00;;;;;;5053662;28;20025;-75
2024/01/29 03:02:22;;;;;;;10.15;4.47;;;5.40;1.00;;;;;;5055372;28;20029;-78
2024/01/29 03:04:48;;;;;;;11.43;3.80;;;5.40;1.00;;;;;;5055356;28;20033;-77
2024/01/29 03:07:13;;;;;;;9.48;4.40;;;5.30;1.00;;;;;;5054671;28;20052;-75
2024/01/29 03:09:39;;;;;;;13.38;4.57;;;5.30;1.00;;;;;;5054619;28;20096;-75
2024/01/29 03:12:05;;;;;;;9.85;4.10;;;5.30;1.00;;;;;;5053856;28;20028;-76
2024/01/29 03:14:30;;;;;;;8.30;3.97;;;5.30;1.00;;;;;;5054282;28;20037;-77
2024/01/29 03:16:56;;;;;;;13.27;4.30;;;5.20;1.00;;;;;;5053503;28;20112;-76
2024/01/29 03:19:22;;;;;;;15.15;4.18;;;5.20;1.00;;;;;;5053615;28;20029;-76
2024/01/29 03:21:47;;;;;;;15.10;4.75;;;5.20;1.00;;;;;;5054419;28;20383;-76
2024/01/29 03:24:14;;;;;;;17.83;4.50;;;5.10;1.00;;;;;;5053695;28;20451;-74
2024/01/29 03:26:39;;;;;;;11.45;3.88;;;5.10;1.00;;;;;;5052279;28;20044;-75
2024/01/29 03:29:05;;;;;;;11.40;4.40;;;5.10;1.00;;;;;;5053036;28;20480;-75
2024/01/29 03:31:30;;;;;;;12.10;4.18;;;5.00;1.00;;;;;;5053350;28;20063;-73
2024/01/29 03:33:56;;;;;;;11.02;4.72;;;5.10;1.00;;;;;;5052831;28;20025;-76
2024/01/29 03:36:22;;;;;;;10.40;4.50;;;5.10;1.00;;;;;;5053536;28;20411;-76
2024/01/29 03:38:47;;;;;;;10.07;4.32;;;5.10;1.00;;;;;;5052036;28;20037;-76
2024/01/29 03:41:13;;;;;;;10.73;4.10;;;5.10;1.00;;;;;;5053297;28;20024;-77
2024/01/29 03:43:38;;;;;;;10.45;4.07;;;5.00;1.00;;;;;;5053207;28;20025;-75
2024/01/29 03:46:04;;;;;;;9.82;4.15;;;5.00;1.00;;;;;;5053132;28;20025;-75
2024/01/29 03:48:30;;;;;;;10.55;4.22;;;5.10;1.00;;;;;;5052306;28;20033;-74
2024/01/29 03:50:55;;;;;;;11.10;3.80;;;5.10;1.00;;;;;;5052845;28;20025;-74
2024/01/29 03:53:21;;;;;;;9.52;4.05;;;5.10;1.00;;;;;;5052261;28;20396;-74
2024/01/29 03:55:47;;;;;;;8.98;3.92;;;5.00;1.00;;;;;;5052799;28;20087;-73
2024/01/29 03:58:13;;;;;;;12.00;4.72;;;4.90;1.00;;;;;;5052337;28;20025;-74
2024/01/29 04:00:39;;;;;;;14.13;4.45;;;4.90;1.00;;;;;;5052998;28;20021;-76
2024/01/29 04:03:06;;;;;;;11.93;4.70;;;4.90;1.00;;;;;;5053218;28;20051;-75
2024/01/29 04:05:31;;;;;;;11.85;4.38;;;4.90;1.00;;;;;;5053155;28;20114;-75
2024/01/29 04:07:57;;;;;;;12.82;4.88;;;4.90;1.00;;;;;;5052175;28;20465;-72
2024/01/29 04:10:23;;;;;;;11.38;3.92;;;4.80;1.00;;;;;;5052591;28;20021;-74
2024/01/29 04:12:48;;;;;;;12.95;4.25;;;4.80;1.00;;;;;;5053331;28;20075;-74
2024/01/29 04:15:14;;;;;;;10.68;4.13;;;4.80;1.00;;;;;;5051160;28;20025;-73
2024/01/29 04:17:40;;;;;;;12.15;4.55;;;4.70;1.00;;;;;;5050797;28;20033;-73
2024/01/29 04:20:06;;;;;;;12.95;4.68;;;4.60;1.00;;;;;;5052036;28;20041;-76
2024/01/29 04:22:33;;;;;;;13.07;4.30;;;4.60;1.00;;;;;;5052129;28;20052;-74
2024/01/29 04:25:08;;;;;;;10.48;4.10;;;4.60;1.00;;;;;;5056953;28;20020;-74
2024/01/29 04:27:34;;;;;;;12.57;4.93;;;4.70;1.00;;;;;;5071941;28;20033;-74
2024/01/29 04:30:02;;;;;;;9.25;3.80;;;4.60;1.00;;;;;;5071759;28;20078;-73
2024/01/29 04:32:29;;;;;;;13.02;4.40;;;4.60;1.00;;;;;;5071528;28;20103;-73
2024/01/29 04:34:54;;;;;;;9.57;4.03;;;4.50;1.00;;;;;;5071412;28;20028;-73
2024/01/29 04:37:20;;;;;;;12.75;4.22;;;4.50;1.00;;;;;;5071277;28;20043;-74
2024/01/29 04:39:45;;;;;;;8.57;3.75;;;4.50;1.00;;;;;;5071141;28;20032;-76
2024/01/29 04:42:12;;;;;;;11.85;4.68;;;4.50;1.00;;;;;;5071554;28;20463;-74
2024/01/29 04:44:38;;;;;;;8.40;3.45;;;4.50;1.00;;;;;;5070914;28;20070;-73
2024/01/29 04:47:03;;;;;;;11.13;4.63;;;4.50;1.00;;;;;;5071183;28;20036;-73
2024/01/29 04:49:29;;;;;;;10.57;3.85;;;4.50;1.00;;;;;;5071503;28;20036;-74
2024/01/29 04:51:54;;;;;;;8.77;4.00;;;4.40;1.00;;;;;;5071494;28;20028;-74
2024/01/29 04:54:20;;;;;;;12.10;3.67;;;4.40;1.00;;;;;;5071205;28;20056;-74
2024/01/29 04:56:46;;;;;;;8.55;4.10;;;4.40;1.00;;;;;;5070254;28;20020;-74
2024/01/29 04:59:12;;;;;;;11.75;4.03;;;4.40;1.00;;;;;;5071368;28;20082;-75
2024/01/29 05:01:37;;;;;;;17.30;4.28;;;4.40;1.00;;;;;;5070997;28;20446;-74
2024/01/29 05:04:03;;;;;;;9.85;4.10;;;4.50;1.00;;;;;;5071071;28;20043;-74
2024/01/29 05:06:28;;;;;;;11.82;3.90;;;4.40;1.00;;;;;;5070672;28;20795;-73
2024/01/29 05:08:55;;;;;;;13.35;4.82;;;4.40;1.00;;;;;;5071236;28;20284;-73
2024/01/29 05:11:20;;;;;;;10.38;3.88;;;4.40;1.00;;;;;;5070984;28;20021;-74
2024/01/29 05:13:46;;;;;;;9.63;4.43;;;4.40;1.00;;;;;;5071114;28;20031;-73
2024/01/29 05:16:12;;;;;;;7.28;3.63;;;4.30;1.00;;;;;;5071386;28;20051;-71
2024/01/29 05:18:38;;;;;;;11.70;4.50;;;4.30;1.00;;;;;;5070354;28;20032;-73
2024/01/29 05:21:04;;;;;;;10.48;4.32;;;4.30;1.00;;;;;;5070764;28;20542;-74
2024/01/29 05:23:29;;;;;;;11.98;4.35;;;4.30;1.00;;;;;;5070512;28;20028;-73
2024/01/29 05:25:55;;;;;;;7.63;3.58;;;4.30;1.00;;;;;;5070898;28;20055;-74
2024/01/29 05:28:21;;;;;;;16.05;4.20;;;4.30;1.00;;;;;;5069799;28;20021;-72
2024/01/29 05:30:47;;;;;;;11.15;3.95;;;4.30;1.00;;;;;;5071959;28;20132;-74
2024/01/29 05:33:13;;;;;;;13.75;5.10;;;4.30;1.00;;;;;;5072055;28;20418;-74
2024/01/29 05:35:38;;;;;;;15.05;5.68;;;4.30;1.00;;;;;;5072335;28;20418;-71
2024/01/29 05:38:04;;;;;;;15.73;4.40;;;4.30;1.00;;;;;;5073600;28;20020;-71
2024/01/29 05:40:29;;;;;;;10.85;4.30;;;4.30;1.00;;;;;;5072742;28;20032;-75
2024/01/29 05:42:55;;;;;;;9.77;3.95;;;4.30;1.00;;;;;;5071903;28;20079;-75
2024/01/29 05:45:22;;;;;;;11.27;3.78;;;4.30;1.00;;;;;;5071804;28;20020;-75
2024/01/29 05:47:47;;;;;;;10.80;3.85;;;4.30;1.00;;;;;;5064827;28;20048;-78
2024/01/29 05:50:14;;;;;;;10.60;4.57;;;4.30;1.00;;;;;;5048089;28;20032;-77
2024/01/29 05:52:39;;;;;;;12.25;4.10;;;4.30;1.00;;;;;;5054684;28;20024;-73
2024/01/29 05:55:05;;;;;;;13.80;3.70;;;4.30;1.00;;;;;;5052104;28;20098;-76
2024/01/29 05:57:31;;;;;;;8.60;3.72;;;4.40;1.00;;;;;;5051256;28;20052;-73
2024/01/29 05:59:56;;;;;;;10.85;3.65;;;4.40;1.00;;;;;;5052163;28;20059;-73
2024/01/29 06:02:22;;;;;;;11.43;4.95;;;4.50;1.00;;;;;;5052226;28;20029;-76
2024/01/29 06:04:48;;;;;;;12.55;4.22;;;4.50;1.00;;;;;;5051900;28;20166;-73
2024/01/29 06:07:13;;;;;;;14.82;4.63;;;4.50;1.00;;;;;;5051969;28;20492;-75
2024/01/29 06:09:39;;;;;;;8.75;3.47;;;4.50;1.00;;;;;;5052621;28;20013;-76
2024/01/29 06:12:05;;;;;;;11.15;4.07;;;4.50;1.00;;;;;;5052576;28;20053;-75
2024/01/29 06:14:31;;;;;;;13.88;3.50;;;4.50;1.00;;;;;;5051903;28;20029;-75
2024/01/29 06:16:57;;;;;;;10.75;4.10;;;4.60;1.00;;;;;;5052869;28;20025;-75
2024/01/29 06:19:23;;;;;;;12.98;4.93;;;4.60;1.00;;;;;;5053321;28;20055;-74
2024/01/29 06:21:50;;;;;;;12.50;5.03;;;4.60;1.00;;;;;;5050599;28;20035;-75
2024/01/29 06:24:16;;;;;;;7.95;3.97;;;4.60;1.00;;;;;;5051083;28;20110;-74
2024/01/29 06:26:41;;;;;;;9.07;3.55;;;4.70;1.00;;;;;;5048038;28;20472;-75
2024/01/29 06:29:08;;;;;;;9.75;3.95;;;4.70;1.00;;;;;;5050975;28;20073;-76
2024/01/29 06:31:37;;;;;;;10.63;3.72;;;4.80;1.00;;;;;;5050054;28;20021;-76
2024/01/29 06:34:04;;;;;;;14.45;4.18;;;4.70;1.00;;;;;;5051068;28;20047;-75
2024/01/29 06:36:30;;;;;;;18.40;4.22;;;4.70;1.00;;;;;;5055290;28;20025;-78
2024/01/29 06:38:58;;;;;;;17.45;8.57;;;4.80;1.00;;;;;;5054588;28;20492;-74
2024/01/29 06:41:25;;;;;;;14.05;5.97;;;4.80;1.00;;;;;;5054873;28;20021;-74
2024/01/29 06:43:51;;;;;;;11.35;3.72;;;4.80;1.00;;;;;;5054672;28;20028;-74
2024/01/29 06:46:16;;;;;;;8.25;3.60;;;4.80;1.00;;;;;;5056327;28;20065;-75
2024/01/29 06:48:42;;;;;;;9.15;3.47;;;4.90;1.00;;;;;;5055362;28;20472;-73
2024/01/29 06:51:08;;;;;;;12.00;3.33;;;4.90;1.00;;;;;;5053868;28;20496;-75
2024/01/29 06:53:34;;;;;;;11.52;3.88;;;4.90;99.90;;;;;;5055685;28;20100;-80
2024/01/29 06:56:02;;;;;;;9.95;3.80;;;4.90;99.90;;;;;;5062030;28;20393;-76
2024/01/29 06:58:28;;;;;;;10.77;3.95;;;4.90;99.90;;;;;;5067795;28;20059;-79
2024/01/29 07:00:59;;;;;;;10.60;3.83;;;4.90;99.90;;;;;;5055479;28;20051;-75
2024/01/29 07:03:25;;;;;;;12.20;4.40;;;4.90;99.90;;;;;;5058888;28;20052;-75
2024/01/29 07:05:51;;;;;;;11.93;3.67;;;4.90;99.90;;;;;;5060902;28;20410;-78
2024/01/29 07:08:16;;;;;;;9.63;3.80;;;4.90;99.90;;;;;;5051147;28;20030;-76
2024/01/29 07:10:43;;;;;;;9.90;3.70;;;4.90;99.90;;;;;;5059033;28;20044;-76
2024/01/29 07:13:09;;;;;;;13.65;3.70;;;4.90;99.90;;;;;;5057200;28;20028;-72
2024/01/29 07:15:34;;;;;;;8.75;2.97;;;4.90;99.90;;;;;;5054413;28;20029;-72
2024/01/29 07:18:00;;;;;;;10.88;3.63;;;4.90;99.90;;;;;;5052970;28;20052;-74
2024/01/29 07:20:38;;;;;;;11.68;3.58;;;4.90;99.90;;;;;;5054786;28;20552;-74
2024/01/29 07:23:08;;;;;;;16.75;3.90;;;4.90;99.90;;;;;;5054128;28;20037;-73
2024/01/29 07:25:38;;;;;;;11.45;3.95;;;5.00;99.90;;;;;;5053969;28;20021;-73
2024/01/29 07:28:04;;;;;;;9.52;3.63;;;5.00;99.90;;;;;;5053429;28;20025;-76
2024/01/29 07:30:30;;;;;;;11.57;3.92;;;5.00;99.90;;;;;;5054043;28;20032;-73
2024/01/29 07:33:00;;;;;;;13.93;4.10;;;5.00;99.90;;;;;;5054046;28;20036;-73
2024/01/29 07:35:26;;;;;;;12.13;4.32;;;5.10;99.90;;;;;;5054221;28;20029;-73
2024/01/29 07:37:52;;;;;;;9.77;3.80;;;5.10;99.90;;;;;;5053027;28;20028;-75
2024/01/29 07:40:19;;;;;;;9.68;4.32;;;5.10;99.90;;;;;;5047305;28;20033;-76
2024/01/29 07:42:46;;;;;;;11.48;4.85;;;5.10;99.90;;;;;;5054261;28;20029;-75
2024/01/29 07:45:11;;;;;;;11.05;4.43;;;5.20;99.90;;;;;;5058433;28;20115;-73
2024/01/29 07:47:37;;;;;;;12.02;4.28;;;5.20;99.90;;;;;;5046795;28;20095;-73
2024/01/29 07:50:03;;;;;;;13.15;5.15;;;5.30;99.90;;;;;;5052785;28;20082;-72
2024/01/29 07:52:29;;;;;;;16.50;4.75;;;5.30;99.90;;;;;;5055041;28;20453;-75
2024/01/29 07:54:55;;;;;;;16.20;4.18;;;5.40;99.90;;;;;;5073454;28;20043;-74
2024/01/29 07:57:20;;;;;;;11.43;4.38;;;5.40;99.90;;;;;;5072712;28;20033;-73
2024/01/29 07:59:46;;;;;;;17.70;4.90;;;5.50;99.90;;;;;;5073179;28;20028;-74
2024/01/29 08:02:12;;;;;;;11.80;4.28;;;5.60;1.00;;;;;;5073358;28;20032;-75
2024/01/29 08:04:38;;;;;;;10.50;4.40;;;5.60;6.60;;;;;;5072789;28;20101;-74
2024/01/29 08:07:03;;;;;;;17.13;5.43;;;5.70;1.00;;;;;;5073388;28;20441;-72
2024/01/29 08:09:29;;;;;;;17.02;6.93;;;5.80;1.00;;;;;;5072561;28;20032;-72
2024/01/29 08:11:55;;;;;;;19.10;5.18;;;5.80;15.00;;;;;;5073295;28;20024;-74
2024/01/29 08:14:21;;;;;;;14.80;4.32;;;5.80;1.00;;;;;;5073530;28;20112;-74
2024/01/29 08:16:47;;;;;;;13.63;4.53;;;5.90;1.00;;;;;;5072548;28;20506;-76
2024/01/29 08:19:13;;;;;;;13.27;4.40;;;6.00;1.00;;;;;;5072521;28;20032;-74
2024/01/29 08:21:38;;;;;;;13.95;4.40;;;6.00;1.00;;;;;;5074166;28;20039;-73
2024/01/29 08:24:05;;;;;;;10.27;4.15;;;6.20;1.00;;;;;;5073250;28;20024;-73
2024/01/29 08:26:31;;;;;;;9.68;4.05;;;6.20;99.90;;;;;;5072462;28;20038;-73
2024/01/29 08:28:58;;;;;;;11.60;4.35;;;6.30;99.90;;;;;;5072315;28;20029;-75
2024/01/29 08:31:26;;;;;;;10.40;4.20;;;6.40;99.90;;;;;;5072881;28;20067;-72
2024/01/29 08:33:52;;;;;;;15.10;4.00;;;6.90;1.00;;;;;;5073403;28;20025;-73
2024/01/29 08:36:20;;;;;;;10.88;4.68;;;7.40;1.00;;;;;;5072888;28;20035;-72
2024/01/29 08:38:46;;;;;;;15.20;5.32;;;8.00;1.00;;;;;;5073197;28;20025;-74
2024/01/29 08:41:13;;;;;;;13.05;5.90;;;8.60;1.00;;;;;;5072719;28;20029;-73
2024/01/29 08:43:38;;;;;;;16.05;4.82;;;9.10;32.50;;;;;;5072925;28;20418;-73
2024/01/29 08:46:05;;;;;;;23.48;5.05;;;9.40;1.00;;;;;;5073266;28;20020;-75
2024/01/29 08:48:30;;;;;;;10.48;4.18;;;9.80;99.90;;;;;;5072741;28;20028;-74
2024/01/29 08:50:56;;;;;;;13.38;4.15;;;10.00;1.00;;;;;;5073107;28;20027;-73
2024/01/29 08:53:21;;;;;;;8.95;4.03;;;10.20;1.00;;;;;;5073737;28;20052;-77
2024/01/29 08:55:47;;;;;;;15.88;4.68;;;10.30;99.90;;;;;;5072622;28;20475;-75
2024/01/29 08:58:14;;;;;;;17.50;4.40;;;10.60;99.90;;;;;;5071454;28;20103;-74
2024/01/29 09:00:39;;;;;;;11.35;4.47;;;10.50;99.90;;;;;;5072629;28;20032;-75
2024/01/29 09:03:05;;;;;;;10.95;4.40;;;10.60;99.90;;;;;;5072490;28;20055;-76
2024/01/29 09:05:30;;;;;;;16.10;4.50;;;10.80;38.80;;;;;;5072885;28;20058;-77
2024/01/29 09:07:56;;;;;;;14.63;4.57;;;10.90;1.00;;;;;;5072186;28;20118;-73
2024/01/29 09:10:22;;;;;;;12.23;4.25;;;11.10;1.00;;;;;;5072200;28;20383;-74
2024/01/29 09:12:48;;;;;;;14.52;4.90;;;11.40;1.00;;;;;;5071888;28;20360;-72
2024/01/29 09:15:13;;;;;;;14.65;4.97;;;11.50;99.90;;;;;;5070455;28;20028;-74
2024/01/29 09:17:40;;;;;;;25.02;5.70;;;12.00;99.90;;;;;;5071779;28;20020;-73
2024/01/29 09:20:09;;;;;;;15.60;4.43;;;12.60;99.90;;;;;;5071949;28;20024;-73
2024/01/29 09:22:35;;;;;;;19.83;4.80;;;12.90;99.90;;;;;;5072090;28;20032;-72
2024/01/29 09:25:00;;;;;;;15.18;4.60;;;13.30;99.90;;;;;;5072029;28;20039;-72
2024/01/29 09:27:26;;;;;;;14.13;4.22;;;13.90;59.50;;;;;;5072234;28;20020;-72
2024/01/29 09:29:51;;;;;;;13.50;4.47;;;14.30;1.00;;;;;;5072192;28;20028;-75
2024/01/29 09:32:17;;;;;;;26.35;12.20;;;14.20;1.00;;;;;;5071849;28;20024;-76
2024/01/29 09:34:43;;;;;;;16.20;4.32;;;14.40;1.00;;;;;;5071872;28;20027;-75
2024/01/29 09:37:08;;;;;;;27.55;4.75;;;14.20;1.00;;;;;;5071556;28;20419;-77
2024/01/29 09:39:34;;;;;;;11.60;4.75;;;14.50;1.00;;;;;;5072231;28;20032;-74
2024/01/29 09:42:03;;;;;;;18.80;5.13;;;14.60;1.00;;;;;;5071875;28;20107;-75
2024/01/29 09:44:39;;;;;;;15.27;5.35;;;15.00;1.00;;;;;;5072112;28;20028;-76
2024/01/29 09:47:05;;;;;;;16.02;6.65;;;15.30;1.00;;;;;;5071928;28;20020;-73
2024/01/29 09:49:36;;;;;;;25.65;4.75;;;15.20;1.00;;;;;;5072307;28;20392;-75
2024/01/29 09:52:04;;;;;;;10.45;3.15;;;15.60;1.00;;;;;;5072531;28;20107;-73
2024/01/29 09:54:30;;;;;;;6.82;3.13;;;16.00;1.00;;;;;;5071923;28;20025;-73
2024/01/29 09:56:55;;;;;;;8.63;2.90;;;15.70;1.00;;;;;;5071670;28;20107;-72
2024/01/29 09:59:22;;;;;;;11.43;5.05;;;15.80;99.90;;;;;;5071721;28;20465;-73
2024/01/29 10:01:49;;;;;;;7.15;2.55;;;16.00;99.90;;;;;;5071019;28;20056;-73
2024/01/29 10:04:15;;;;;;;5.90;3.00;;;16.10;99.90;;;;;;5071265;28;20079;-74
2024/01/29 10:06:40;;;;;;;5.75;2.88;;;16.60;99.90;;;;;;5071317;28;20383;-74
2024/01/29 10:09:06;;;;;;;8.10;2.90;;;16.90;99.90;;;;;;5071250;28;20096;-73
2024/01/29 10:11:32;;;;;;;5.38;2.97;;;16.50;99.90;;;;;;5071276;28;20388;-74
2024/01/29 10:13:59;;;;;;;7.10;2.70;;;16.30;99.90;;;;;;5071573;28;20021;-76
2024/01/29 10:16:27;;;;;;;4.55;2.38;;;16.00;99.90;;;;;;5071564;28;20024;-75
2024/01/29 10:19:00;;;;;;;7.82;2.88;;;15.30;99.90;;;;;;5071375;28;20096;-75
2024/01/29 10:21:26;;;;;;;7.70;4.03;;;14.30;99.90;;;;;;5071773;28;20581;-73
2024/01/29 10:23:58;;;;;;;7.05;3.13;;;13.90;99.90;;;;;;5071753;28;20029;-73
2024/01/29 10:26:24;;;;;;;6.68;3.00;;;13.50;1.00;;;;;;5071688;28;20059;-72
2024/01/29 10:29:04;;;;;;;8.85;3.45;;;13.20;1.00;;;;;;5070871;28;20020;-72
2024/01/29 10:31:30;;;;;;;6.45;2.63;;;12.40;1.00;;;;;;5071412;28;20025;-75
2024/01/29 10:33:56;;;;;;;6.43;3.47;;;11.90;1.00;;;;;;5071820;28;20032;-75
2024/01/29 10:36:22;;;;;;;6.72;2.75;;;11.80;1.00;;;;;;5085770;28;20501;-75
2024/01/29 10:38:48;;;;;;;6.05;2.65;;;11.70;29.50;;;;;;5071909;28;20056;-73
2024/01/29 10:41:20;;;;;;;5.10;2.83;;;11.60;99.90;;;;;;5072691;28;20109;-73
2024/01/29 10:43:48;;;;;;;7.53;2.70;;;11.60;99.90;;;;;;5071532;28;20446;-74
2024/01/29 10:46:21;;;;;;;6.88;2.90;;;11.50;99.90;;;;;;5071606;28;20020;-73
2024/01/29 10:48:48;;;;;;;5.40;2.90;;;11.40;99.90;;;;;;5071705;28;20021;-73
2024/01/29 10:51:15;;;;;;;5.97;2.70;;;11.30;99.90;;;;;;5074987;28;20032;-73
2024/01/29 10:53:41;;;;;;;5.55;2.80;;;11.30;99.90;;;;;;5074142;28;20025;-73
2024/01/29 10:56:11;;;;;;;12.05;3.88;;;11.20;1.00;;;;;;5071687;28;20032;-74
2024/01/29 10:58:37;;;;;;;8.65;3.45;;;11.30;1.00;;;;;;5071167;28;20032;-75
2024/01/29 11:01:09;;;;;;;8.27;4.00;;;11.40;1.00;;;;;;5071554;28;20024;-75
2024/01/29 11:03:35;;;;;;;7.32;3.05;;;11.50;1.00;;;;;;5070845;28;20364;-75
2024/01/29 11:06:28;;;;;;;13.02;4.07;;;11.50;1.00;;;;;;5070772;28;20017;-73
2024/01/29 11:09:00;;;;;;;9.23;4.15;;;11.50;1.00;;;;;;5070722;28;20031;-73
2024/01/29 11:11:27;;;;;;;7.50;3.40;;;11.30;1.00;;;;;;5071814;28;20127;-77
2024/01/29 11:13:53;;;;;;;8.88;4.07;;;11.40;1.00;;;;;;5069314;28;20423;-75
2024/01/29 11:16:24;;;;;;;6.80;3.55;;;11.50;1.00;;;;;;5069852;28;20105;-76
2024/01/29 11:18:50;;;;;;;7.72;4.05;;;11.60;1.00;;;;;;5069434;28;20032;-75
2024/01/29 11:21:16;;;;;;;7.95;3.30;;;11.60;1.00;;;;;;5072964;28;20116;-78
2024/01/29 11:23:46;;;;;;;8.23;3.35;;;11.70;1.00;;;;;;5074519;28;20113;-74
2024/01/29 11:26:17;;;;;;;12.07;5.60;;;11.80;1.00;;;;;;5075973;28;20479;-77
2024/01/29 11:28:42;;;;;;;8.65;3.55;;;11.90;1.00;;;;;;5075065;28;20443;-75
2024/01/29 11:31:12;;;;;;;10.73;4.45;;;12.10;1.00;;;;;;5074532;28;20048;-73
2024/01/29 11:33:39;;;;;;;11.98;3.45;;;12.50;1.00;;;;;;5072823;28;20024;-75
2024/01/29 11:36:16;;;;;;;7.75;3.95;;;13.20;99.90;;;;;;5074008;28;20040;-75
2024/01/29 11:38:41;;;;;;;8.65;4.00;;;14.10;99.90;;;;;;5072701;28;20089;-74
2024/01/29 11:41:07;;;;;;;7.75;3.80;;;14.80;1.00;;;;;;5073417;28;20468;-74
2024/01/29 11:43:33;;;;;;;8.35;3.60;;;15.60;1.00;;;;;;5073439;28;20029;-74
2024/01/29 11:45:59;;;;;;;8.05;3.47;;;16.00;1.00;;;;;;5072939;28;20245;-73
2024/01/29 11:48:25;;;;;;;11.18;3.58;;;;;;;;;;5072457;28;20028;-75
2024/01/29 11:50:53;;;;;;;9.82;3.50;;;17.70;1.00;;;;;;5073529;28;20029;-76
2024/01/29 11:53:21;;;;;;;6.95;3.63;;;18.30;99.90;;;;;;5080065;28;20480;-73
2024/01/29 11:55:48;;;;;;;7.68;3.40;;;18.60;99.90;;;;;;5073754;28;20035;-73
2024/01/29 11:58:21;;;;;;;6.68;3.58;;;19.00;99.90;;;;;;5073029;28;20017;-75
2024/01/29 12:00:49;;;;;;;8.80;3.73;;;19.30;99.90;;;;;;5073236;28;20360;-77
2024/01/29 12:03:20;;;;;;;12.63;3.63;;;19.10;99.90;;;;;;5072866;28;20029;-76
2024/01/29 12:05:47;;;;;;;6.88;3.72;;;19.50;99.90;;;;;;5072488;28;20352;-75
2024/01/29 12:08:20;;;;;;;7.68;3.65;;;19.40;99.90;;;;;;5071769;28;20035;-74
2024/01/29 12:10:47;;;;;;;6.90;3.53;;;19.90;99.90;;;;;;5072746;28;20020;-77
2024/01/29 12:13:17;;;;;;;7.78;3.65;;;20.40;99.90;;;;;;5071993;28;20017;-76
2024/01/29 12:15:44;;;;;;;7.30;3.22;;;20.60;99.90;;;;;;5073638;28;20468;-74
2024/01/29 12:18:23;;;;;;;7.20;3.80;;;19.90;99.90;;;;;;5071747;28;20059;-76
2024/01/29 12:20:50;;;;;;;7.53;3.80;;;20.30;99.90;;;;;;5072341;28;20078;-75
2024/01/29 12:23:17;;;;;;;8.20;4.13;;;20.30;99.90;;;;;;5072600;28;20506;-76
2024/01/29 12:25:45;;;;;;;9.80;3.95;;;20.60;99.90;;;;;;5071690;28;20021;-74
2024/01/29 12:28:12;;;;;;;7.75;3.95;;;20.50;99.90;;;;;;5063068;28;20029;-73
2024/01/29 12:30:39;;;;;;;10.02;4.63;;;20.50;99.90;;;;;;5050301;28;20021;-73
2024/01/29 12:33:07;;;;;;;8.00;4.00;;;20.40;99.90;;;;;;5052073;28;20503;-73
2024/01/29 12:35:34;;;;;;;11.57;4.00;;;20.10;99.90;;;;;;5052366;28;20032;-75
2024/01/29 12:38:13;;;;;;;6.85;3.80;;;19.90;99.90;;;;;;5051183;28;20029;-75
2024/01/29 12:40:42;;;;;;;10.82;4.30;;;20.10;99.90;;;;;;5052378;28;20380;-75
2024/01/29 12:43:09;;;;;;;7.90;4.38;;;20.60;99.90;;;;;;5053025;28;20032;-75
2024/01/29 12:45:36;;;;;;;7.32;3.97;;;20.40;99.90;;;;;;5052842;28;20473;-75
2024/01/29 12:48:09;;;;;;;7.95;4.10;;;20.50;99.90;;;;;;5051384;28;20033;-75